createdAt,value
2016-03-17T00:02:41.173Z,-1.2
2016-03-17T00:05:40.744Z,-1.2
2016-03-17T00:08:54.971Z,-1.3
2016-03-17T00:12:04.025Z,-1.3
2016-03-17T00:15:12.737Z,-1.3
2016-03-17T00:18:24.354Z,-1.3
2016-03-17T00:24:39.858Z,-1.4
2016-03-17T00:27:51.568Z,-1.4
2016-03-17T00:31:03.171Z,-1.5
2016-03-17T00:34:13.100Z,-1.5
2016-03-17T00:37:25.265Z,-1.6
2016-03-17T00:40:42.166Z,-1.7
2016-03-17T00:43:44.127Z,-1.7
2016-03-17T00:46:55.472Z,-1.7
2016-03-17T00:50:06.215Z,-1.7
2016-03-17T00:53:18.176Z,-1.8
2016-03-17T00:56:34.500Z,-1.8
2016-03-17T00:59:41.352Z,-1.8
2016-03-17T01:02:43.203Z,-1.8
2016-03-17T01:05:55.024Z,-1.8
2016-03-17T01:09:06.652Z,-1.9
2016-03-17T01:12:18.613Z,-1.9
2016-03-17T01:15:35.514Z,-1.9
2016-03-17T01:18:42.351Z,-1.9
2016-03-17T01:21:44.000Z,-1.9
2016-03-17T01:24:54.039Z,-2
2016-03-17T01:28:03.250Z,-2
2016-03-17T01:31:12.539Z,-2
2016-03-17T01:34:24.172Z,-1.9
2016-03-17T01:37:40.746Z,-2
2016-03-17T01:40:42.519Z,-2
2016-03-17T01:43:51.902Z,-2
2016-03-17T01:47:05.942Z,-2
2016-03-17T01:50:17.559Z,-2.1
2016-03-17T01:53:27.349Z,-2.1
2016-03-17T01:56:38.638Z,-2.2
2016-03-17T01:59:50.431Z,-2.2
2016-03-17T02:03:02.203Z,-2.2
2016-03-17T02:06:13.696Z,-2.2
2016-03-17T02:09:25.610Z,-2.2
2016-03-17T02:12:42.571Z,-2.3
2016-03-17T02:15:44.393Z,-2.3
2016-03-17T02:18:55.887Z,-2.3
2016-03-17T02:22:05.848Z,-2.3
2016-03-17T02:25:23.748Z,-2.3
2016-03-17T02:28:36.084Z,-2.4
2016-03-17T02:31:42.561Z,-2.3
2016-03-17T02:34:44.037Z,-2.4
2016-03-17T02:37:55.470Z,-2.4
2016-03-17T02:41:05.400Z,-2.4
2016-03-17T02:44:15.017Z,-2.4
2016-03-17T02:47:26.650Z,-2.4
2016-03-17T02:50:41.393Z,-2.4
2016-03-17T02:53:42.855Z,-2.5
2016-03-17T02:56:51.881Z,-2.5
2016-03-17T03:00:03.357Z,-2.6
2016-03-17T03:03:14.756Z,-2.6
2016-03-17T03:06:26.576Z,-2.6
2016-03-17T03:09:41.710Z,-2.6
2016-03-17T03:12:43.327Z,-2.6
2016-03-17T03:15:54.852Z,-2.6
2016-03-17T03:19:04.643Z,-2.6
2016-03-17T03:22:16.276Z,-2.6
2016-03-17T03:25:26.003Z,-2.6
2016-03-17T03:28:42.354Z,-2.7
2016-03-17T03:31:43.753Z,-2.7
2016-03-17T03:34:53.483Z,-2.7
2016-03-17T03:38:03.322Z,-2.7
2016-03-17T03:41:12.465Z,-2.8
2016-03-17T03:44:25.952Z,-2.8
2016-03-17T03:47:42.697Z,-2.8
2016-03-17T03:50:44.326Z,-2.8
2016-03-17T03:53:56.099Z,-2.9
2016-03-17T03:57:07.666Z,-2.9
2016-03-17T04:00:19.160Z,-2.9
2016-03-17T04:03:35.682Z,-2.9
2016-03-17T04:06:42.018Z,-2.9
2016-03-17T04:09:43.605Z,-2.9
2016-03-17T04:12:54.147Z,-2.9
2016-03-17T04:16:05.655Z,-2.9
2016-03-17T04:19:17.053Z,-2.9
2016-03-17T04:22:25.483Z,-2.9
2016-03-17T04:25:41.945Z,-2.9
2016-03-17T04:28:43.375Z,-2.9
2016-03-17T04:31:52.120Z,-3
2016-03-17T04:35:03.518Z,-3
2016-03-17T04:38:12.104Z,-3
2016-03-17T04:41:21.145Z,-3
2016-03-17T04:44:34.981Z,-3
2016-03-17T04:47:41.536Z,-3.1
2016-03-17T04:50:43.091Z,-3.1
2016-03-17T04:53:54.319Z,-3.1
2016-03-17T04:57:05.093Z,-3
2016-03-17T05:00:16.711Z,-3.1
2016-03-17T05:03:27.907Z,-3.1
2016-03-17T05:06:39.524Z,-3.2
2016-03-17T05:09:50.844Z,-3.2
2016-03-17T05:13:02.028Z,-3.2
2016-03-17T05:16:13.535Z,-3.2
2016-03-17T05:19:24.450Z,-3.2
2016-03-17T05:22:40.880Z,-3.2
2016-03-17T05:25:42.231Z,-3.1
2016-03-17T05:28:53.708Z,-3.1
2016-03-17T05:32:02.687Z,-3.1
2016-03-17T05:35:10.805Z,-3
2016-03-17T05:38:21.751Z,-2.9
2016-03-17T05:41:38.415Z,-2.9
2016-03-17T05:44:40.032Z,-2.8
2016-03-17T05:47:51.775Z,-2.7
2016-03-17T05:51:03.550Z,-2.6
2016-03-17T05:54:15.247Z,-2.3
2016-03-17T05:57:25.005Z,-2
2016-03-17T06:00:41.685Z,-1.8
2016-03-17T06:03:43.474Z,-1.4
2016-03-17T06:06:55.454Z,-1.3
2016-03-17T06:10:06.759Z,-1
2016-03-17T06:13:15.767Z,-0.5
2016-03-17T06:16:33.525Z,0
2016-03-17T06:19:40.720Z,0.2
2016-03-17T06:22:43.150Z,0.6
2016-03-17T06:25:52.939Z,1
2016-03-17T06:29:05.106Z,1.7
2016-03-17T06:32:16.740Z,2.2
2016-03-17T06:35:26.435Z,1.8
2016-03-17T06:38:38.627Z,3.4
2016-03-17T06:41:52.517Z,6.9
2016-03-17T06:45:04.607Z,9.9
2016-03-17T06:48:17.193Z,12.4
2016-03-17T06:51:34.829Z,14.2
2016-03-17T06:54:39.884Z,15.6
2016-03-17T06:57:52.001Z,16.6
2016-03-17T07:01:03.246Z,17.6
2016-03-17T07:04:16.301Z,18.3
2016-03-17T07:07:27.825Z,18.6
2016-03-17T07:10:42.178Z,18.5
2016-03-17T07:13:54.389Z,18.4
2016-03-17T07:17:06.383Z,17.5
2016-03-17T07:20:17.782Z,16.6
2016-03-17T07:23:36.227Z,16.5
2016-03-17T07:26:40.174Z,15.8
2016-03-17T07:29:53.510Z,15.4
2016-03-17T07:33:04.411Z,14.7
2016-03-17T07:36:14.372Z,13.4
2016-03-17T07:39:34.474Z,12.8
2016-03-17T07:42:42.684Z,12.4
2016-03-17T07:45:46.022Z,12.9
2016-03-17T07:48:59.061Z,14.8
2016-03-17T07:52:13.899Z,18.4
2016-03-17T07:55:25.595Z,21.6
2016-03-17T07:58:42.478Z,23.8
2016-03-17T08:01:47.829Z,25.4
2016-03-17T08:05:01.010Z,26.5
2016-03-17T08:08:15.228Z,27.7
2016-03-17T08:11:36.643Z,28.6
2016-03-17T08:14:43.511Z,29.1
2016-03-17T08:17:58.206Z,29.7
2016-03-17T08:21:14.155Z,30.2
2016-03-17T08:24:35.365Z,30.5
2016-03-17T08:27:42.139Z,31
2016-03-17T08:30:56.179Z,31.6
2016-03-17T08:34:08.827Z,32.2
2016-03-17T08:37:23.385Z,32.6
2016-03-17T08:40:41.612Z,33
2016-03-17T08:43:47.369Z,33.6
2016-03-17T08:47:01.034Z,33.9
2016-03-17T08:50:13.558Z,34.2
2016-03-17T08:53:26.350Z,34.4
2016-03-17T08:56:41.030Z,34.4
2016-03-17T08:59:56.241Z,34.7
2016-03-17T09:03:09.312Z,34.5
2016-03-17T09:06:26.327Z,34.3
2016-03-17T09:09:41.257Z,34.1
2016-03-17T09:12:52.578Z,34.2
2016-03-17T09:16:07.289Z,33.9
2016-03-17T09:19:22.002Z,32.8
2016-03-17T09:22:39.323Z,32.3
2016-03-17T09:25:44.222Z,31.9
2016-03-17T09:28:55.859Z,32.4
2016-03-17T09:32:10.586Z,32.8
2016-03-17T09:35:25.316Z,32.6
2016-03-17T09:38:39.605Z,32.8
2016-03-17T09:41:53.925Z,32.7
2016-03-17T09:45:08.261Z,32.6
2016-03-17T09:48:22.413Z,32.7
2016-03-17T09:51:41.734Z,32
2016-03-17T09:54:46.258Z,31.3
2016-03-17T09:58:00.204Z,30.3
2016-03-17T10:01:12.929Z,28.1
2016-03-17T10:04:24.456Z,26.3
2016-03-17T10:07:38.027Z,24.2
2016-03-17T10:10:51.644Z,23
2016-03-17T10:14:05.497Z,21.8
2016-03-17T10:17:19.332Z,20.9
2016-03-17T10:20:38.655Z,19.9
2016-03-17T10:23:43.851Z,19.1
2016-03-17T10:26:58.624Z,18.7
2016-03-17T10:30:11.086Z,18.1
2016-03-17T10:33:23.548Z,17.4
2016-03-17T10:36:40.417Z,16.6
2016-03-17T10:39:45.800Z,15.7
2016-03-17T10:43:00.261Z,14.9
2016-03-17T10:46:14.800Z,14.3
2016-03-17T10:49:26.561Z,14
2016-03-17T10:52:40.788Z,13.6
2016-03-17T10:55:53.452Z,13.3
2016-03-17T10:59:07.555Z,13.1
2016-03-17T11:02:19.140Z,12.8
2016-03-17T11:05:35.183Z,12.6
2016-03-17T11:08:40.253Z,12.2
2016-03-17T11:11:55.076Z,11.9
2016-03-17T11:15:06.928Z,11.7
2016-03-17T11:18:18.327Z,11.4
2016-03-17T11:21:36.917Z,11.2
2016-03-17T11:24:41.736Z,11.1
2016-03-17T11:27:53.855Z,11
2016-03-17T11:31:05.238Z,10.9
2016-03-17T11:34:19.823Z,10.6
2016-03-17T11:37:39.334Z,10.6
2016-03-17T11:40:44.218Z,10.5
2016-03-17T11:43:55.756Z,10.3
2016-03-17T11:47:10.234Z,10.2
2016-03-17T11:50:23.023Z,10.1
2016-03-17T11:53:40.205Z,10.1
2016-03-17T11:56:45.213Z,10
2016-03-17T11:59:59.363Z,10.1
2016-03-17T12:03:11.625Z,10
2016-03-17T12:06:26.070Z,9.9
2016-03-17T12:09:39.957Z,9.8
2016-03-17T12:12:54.448Z,9.9
2016-03-17T12:16:09.050Z,9.8
2016-03-17T12:19:20.214Z,9.7
2016-03-17T12:22:39.741Z,9.7
2016-03-17T12:25:44.562Z,9.6
2016-03-17T12:28:59.070Z,9.6
2016-03-17T12:32:11.563Z,9.6
2016-03-17T12:35:21.523Z,9.6
2016-03-17T12:38:43.237Z,9.6
2016-03-17T12:41:47.948Z,9.7
2016-03-17T12:45:02.188Z,9.8
2016-03-17T12:48:16.533Z,9.7
2016-03-17T12:51:35.759Z,9.7
2016-03-17T12:54:40.258Z,9.7
2016-03-17T12:57:54.745Z,9.7
2016-03-17T13:01:07.376Z,9.7
2016-03-17T13:04:19.523Z,9.7
2016-03-17T13:07:41.181Z,9.7
2016-03-17T13:10:45.955Z,9.7
2016-03-17T13:13:58.839Z,9.7
2016-03-17T13:17:12.674Z,9.7
2016-03-17T13:20:26.869Z,9.7
2016-03-17T13:23:40.990Z,9.7
2016-03-17T13:26:55.390Z,9.7
2016-03-17T13:30:07.226Z,9.7
2016-03-17T13:33:19.984Z,9.7
2016-03-17T13:36:39.573Z,9.7
2016-03-17T13:39:44.410Z,9.7
2016-03-17T13:42:59.151Z,9.8
2016-03-17T13:46:13.520Z,9.8
2016-03-17T13:49:26.855Z,9.8
2016-03-17T13:52:41.319Z,9.8
2016-03-17T13:55:53.061Z,9.8
2016-03-17T13:59:07.397Z,9.8
2016-03-17T14:02:16.796Z,9.8
2016-03-17T14:05:38.088Z,9.8
2016-03-17T14:08:42.659Z,9.8
2016-03-17T14:11:57.073Z,9.8
2016-03-17T14:15:08.581Z,9.8
2016-03-17T14:18:22.964Z,9.7
2016-03-17T14:21:39.803Z,9.7
2016-03-17T14:24:44.530Z,9.7
2016-03-17T14:27:56.898Z,9.8
2016-03-17T14:31:11.124Z,9.7
2016-03-17T14:34:24.554Z,9.7
2016-03-17T14:37:38.987Z,9.8
2016-03-17T14:40:53.324Z,9.8
2016-03-17T14:44:07.691Z,9.8
2016-03-17T14:47:20.058Z,9.7
2016-03-17T14:50:37.412Z,9.7
2016-03-17T14:53:41.936Z,9.7
2016-03-17T14:56:53.757Z,9.7
2016-03-17T15:00:08.171Z,9.7
2016-03-17T15:03:20.694Z,9.7
2016-03-17T15:06:38.096Z,9.7
2016-03-17T15:09:42.620Z,9.7
2016-03-17T15:12:53.816Z,9.7
2016-03-17T15:16:07.870Z,9.7
2016-03-17T15:19:22.034Z,9.7
2016-03-17T15:22:38.717Z,9.7
2016-03-17T15:25:43.241Z,9.6
2016-03-17T15:28:57.406Z,9.6
2016-03-17T15:32:11.647Z,9.6
2016-03-17T15:35:25.813Z,9.6
2016-03-17T15:38:42.869Z,9.6
2016-03-17T15:41:45.143Z,9.6
2016-03-17T15:45:01.699Z,9.5
2016-03-17T15:48:15.409Z,9.5
2016-03-17T15:51:34.842Z,9.4
2016-03-17T15:54:39.381Z,9.4
2016-03-17T15:57:53.624Z,9.4
2016-03-17T16:04:17.938Z,9.2
2016-03-17T16:07:33.821Z,9.2
2016-03-17T16:10:43.251Z,9.1
2016-03-17T16:13:47.603Z,9.1
2016-03-17T16:17:00.080Z,9
2016-03-17T16:20:13.513Z,9
2016-03-17T16:23:27.599Z,9
2016-03-17T16:26:39.622Z,8.9
2016-03-17T16:29:53.755Z,8.8
2016-03-17T16:33:05.594Z,8.7
2016-03-17T16:36:16.634Z,8.7
2016-03-17T16:39:33.626Z,8.6
2016-03-17T16:42:42.837Z,8.5
2016-03-17T16:45:46.939Z,8.4
2016-03-17T16:49:00.916Z,8.3
2016-03-17T16:52:14.583Z,8.3
2016-03-17T16:55:28.513Z,8.2
2016-03-17T16:58:41.708Z,8.1
2016-03-17T17:01:52.732Z,8
2016-03-17T17:05:06.412Z,7.9
2016-03-17T17:08:20.220Z,7.8
2016-03-17T17:11:38.447Z,7.7
2016-03-17T17:14:42.814Z,7.6
2016-03-17T17:17:56.745Z,7.5
2016-03-17T17:21:08.270Z,7.4
2016-03-17T17:24:20.435Z,7.3
2016-03-17T17:27:39.334Z,7.2
2016-03-17T17:30:43.216Z,7.1
2016-03-17T17:33:57.068Z,7
2016-03-17T17:37:10.892Z,6.9
2016-03-17T17:40:21.368Z,6.8
2016-03-17T17:43:39.189Z,6.7
2016-03-17T17:46:43.025Z,6.6
2016-03-17T17:49:54.205Z,6.5
2016-03-17T17:53:05.978Z,6.4
2016-03-17T17:56:17.130Z,6.3
2016-03-17T17:59:35.514Z,6.2
2016-03-17T18:02:39.287Z,6.2
2016-03-17T18:05:50.514Z,6.2
2016-03-17T18:09:02.632Z,6.1
2016-03-17T18:12:16.111Z,6
2016-03-17T18:15:34.931Z,5.9
2016-03-17T18:18:38.627Z,5.9
2016-03-17T18:21:51.916Z,5.9
2016-03-17T18:25:05.111Z,5.9
2016-03-17T18:28:18.560Z,5.8
2016-03-17T18:31:36.708Z,5.7
2016-03-17T18:34:40.436Z,5.6
2016-03-17T18:37:53.771Z,5.5
2016-03-17T18:41:07.312Z,5.4
2016-03-17T18:44:20.868Z,5.4
2016-03-17T18:47:39.237Z,5.3
2016-03-17T18:50:43.010Z,5.3
2016-03-17T18:53:53.564Z,5.3
2016-03-17T18:57:07.245Z,5.3
2016-03-17T19:00:18.925Z,5.2
2016-03-17T19:03:34.217Z,5.2
2016-03-17T19:06:43.137Z,5.2
2016-03-17T19:09:46.792Z,5.1
2016-03-17T19:13:00.128Z,5
2016-03-17T19:16:13.511Z,4.9
2016-03-17T19:19:24.691Z,4.8
2016-03-17T19:22:43.261Z,4.8
2016-03-17T19:25:46.910Z,4.7
2016-03-17T19:29:00.265Z,4.7
2016-03-17T19:32:13.367Z,4.7
2016-03-17T19:35:26.750Z,4.6
2016-03-17T19:38:39.945Z,4.6
2016-03-17T19:41:53.222Z,4.6
2016-03-17T19:45:03.902Z,4.6
2016-03-17T19:48:17.175Z,4.6
2016-03-17T19:51:34.996Z,4.5
2016-03-17T19:54:38.738Z,4.4
2016-03-17T19:57:52.077Z,4.4
2016-03-17T20:01:05.804Z,4.4
2016-03-17T20:04:19.016Z,4.3
2016-03-17T20:07:37.399Z,4.2
2016-03-17T20:10:41.094Z,4.1
2016-03-17T20:13:54.417Z,4.1
2016-03-17T20:17:07.676Z,4.1
2016-03-17T20:20:20.903Z,4
2016-03-17T20:23:37.675Z,4
2016-03-17T20:26:41.277Z,4
2016-03-17T20:29:53.958Z,4
2016-03-17T20:33:06.827Z,4
2016-03-17T20:36:18.460Z,3.9
2016-03-17T20:39:39.031Z,3.8
2016-03-17T20:42:42.681Z,3.8
2016-03-17T20:45:56.282Z,3.8
2016-03-17T20:49:09.371Z,3.7
2016-03-17T20:52:22.207Z,3.6
2016-03-17T20:55:40.341Z,3.6
2016-03-17T20:58:44.114Z,3.6
2016-03-17T21:01:55.841Z,3.6
2016-03-17T21:05:09.132Z,3.5
2016-03-17T21:08:19.953Z,3.5
2016-03-17T21:11:38.821Z,3.5
2016-03-17T21:14:42.392Z,3.4
2016-03-17T21:17:53.227Z,3.4
2016-03-17T21:21:06.550Z,3.3
2016-03-17T21:24:19.919Z,3.3
2016-03-17T21:27:38.114Z,3.3
2016-03-17T21:30:41.716Z,3.2
2016-03-17T21:33:54.958Z,3.2
2016-03-17T21:37:06.547Z,3.1
2016-03-17T21:40:20.632Z,3.1
2016-03-17T21:43:38.423Z,3
2016-03-17T21:46:41.961Z,3
2016-03-17T21:49:55.079Z,3
2016-03-17T21:53:05.924Z,3
2016-03-17T21:56:16.000Z,2.9
2016-03-17T21:59:27.336Z,2.9
2016-03-17T22:02:40.386Z,2.8
2016-03-17T22:05:53.732Z,2.8
2016-03-17T22:09:06.693Z,2.7
2016-03-17T22:12:19.950Z,2.7
2016-03-17T22:15:37.692Z,2.6
2016-03-17T22:18:41.153Z,2.6
2016-03-17T22:21:54.552Z,2.6
2016-03-17T22:25:06.609Z,2.5
2016-03-17T22:28:17.086Z,2.5
2016-03-17T22:31:28.141Z,2.4
2016-03-17T22:34:41.369Z,2.4
2016-03-17T22:37:52.501Z,2.3
2016-03-17T22:41:05.481Z,2.3
2016-03-17T22:44:18.396Z,2.3
2016-03-17T22:47:29.278Z,2.3
2016-03-17T22:50:43.395Z,2.3
2016-03-17T22:53:46.810Z,2.3
2016-03-17T22:56:59.942Z,2.2
2016-03-17T23:00:10.329Z,2.2
2016-03-17T23:03:20.384Z,2.2
2016-03-17T23:06:38.283Z,2.2
2016-03-17T23:09:39.275Z,2.1
2016-03-17T23:12:54.611Z,2
2016-03-17T23:16:06.841Z,2
2016-03-17T23:19:16.786Z,2
2016-03-17T23:22:26.654Z,1.9
2016-03-17T23:25:39.959Z,1.9
2016-03-17T23:28:50.810Z,2
2016-03-17T23:32:02.383Z,1.9
2016-03-17T23:35:14.172Z,2
2016-03-17T23:38:27.274Z,2
2016-03-17T23:41:40.408Z,2
2016-03-17T23:44:51.213Z,1.9
2016-03-17T23:48:02.239Z,1.9
2016-03-17T23:51:15.044Z,1.9
2016-03-17T23:54:27.771Z,2
2016-03-17T23:57:43.763Z,1.9
